createdAt,value
2018-12-29T00:02:51.055Z,0.90
2018-12-29T00:07:36.905Z,0.90
2018-12-29T00:12:22.679Z,0.80
2018-12-29T00:17:08.425Z,0.80
2018-12-29T00:21:54.158Z,0.80
2018-12-29T00:26:39.886Z,0.80
2018-12-29T00:31:25.670Z,0.70
2018-12-29T00:36:11.769Z,0.70
2018-12-29T00:40:57.747Z,0.70
2018-12-29T00:45:43.412Z,0.70
2018-12-29T00:50:29.636Z,0.80
2018-12-29T00:55:15.725Z,0.80
2018-12-29T01:00:01.580Z,0.80
2018-12-29T01:04:47.745Z,0.90
2018-12-29T01:09:33.474Z,0.90
2018-12-29T01:14:19.201Z,0.90
2018-12-29T01:19:04.977Z,1.00
2018-12-29T01:23:50.727Z,0.90
2018-12-29T01:28:36.445Z,0.90
2018-12-29T01:33:22.091Z,0.90
2018-12-29T01:38:07.998Z,1.00
2018-12-29T01:42:53.712Z,1.00
2018-12-29T01:47:39.828Z,1.10
2018-12-29T01:52:25.913Z,1.10
2018-12-29T01:57:11.727Z,1.10
2018-12-29T02:01:57.590Z,1.10
2018-12-29T02:06:43.340Z,1.00
2018-12-29T02:11:32.204Z,1.00
2018-12-29T02:16:18.088Z,0.90
2018-12-29T02:21:03.802Z,0.90
2018-12-29T02:25:49.553Z,0.90
2018-12-29T02:30:35.618Z,0.90
2018-12-29T02:35:21.422Z,1.00
2018-12-29T02:40:07.865Z,1.00
2018-12-29T02:44:53.917Z,0.90
2018-12-29T02:49:39.620Z,0.90
2018-12-29T02:54:25.747Z,0.80
2018-12-29T02:59:11.432Z,0.80
2018-12-29T03:03:57.265Z,0.80
2018-12-29T03:08:43.001Z,0.80
2018-12-29T03:13:29.038Z,0.70
2018-12-29T03:18:14.916Z,0.70
2018-12-29T03:23:00.741Z,0.70
2018-12-29T03:27:46.403Z,0.70
2018-12-29T03:32:32.283Z,0.70
2018-12-29T03:37:18.372Z,0.70
2018-12-29T03:42:04.677Z,0.70
2018-12-29T03:46:50.418Z,0.70
2018-12-29T03:51:36.198Z,0.70
2018-12-29T03:56:21.869Z,0.70
2018-12-29T04:01:07.901Z,0.60
2018-12-29T04:05:53.636Z,0.60
2018-12-29T04:10:39.570Z,0.60
2018-12-29T04:15:25.354Z,0.60
2018-12-29T04:20:11.070Z,0.50
2018-12-29T04:24:56.778Z,0.50
2018-12-29T04:29:42.516Z,0.50
2018-12-29T04:34:28.184Z,0.50
2018-12-29T04:39:13.932Z,0.40
2018-12-29T04:43:59.615Z,0.30
2018-12-29T04:48:45.342Z,0.40
2018-12-29T04:53:30.986Z,0.40
2018-12-29T04:58:16.735Z,0.40
2018-12-29T05:03:02.406Z,0.30
2018-12-29T05:07:48.317Z,0.30
2018-12-29T05:12:34.006Z,0.30
2018-12-29T05:17:19.725Z,0.30
2018-12-29T05:22:05.480Z,0.30
2018-12-29T05:26:51.164Z,0.30
2018-12-29T05:31:36.840Z,0.30
2018-12-29T05:36:22.551Z,0.30
2018-12-29T05:41:08.289Z,0.30
2018-12-29T05:45:54.091Z,0.30
2018-12-29T05:50:39.860Z,0.30
2018-12-29T05:55:25.656Z,0.40
2018-12-29T06:00:11.455Z,0.30
2018-12-29T06:04:57.243Z,0.40
2018-12-29T06:09:43.033Z,0.50
2018-12-29T06:14:28.748Z,0.60
2018-12-29T06:19:14.480Z,0.60
2018-12-29T06:24:00.259Z,0.60
2018-12-29T06:28:45.890Z,0.60
2018-12-29T06:33:31.635Z,0.60
2018-12-29T06:38:17.320Z,0.60
2018-12-29T06:43:03.062Z,0.60
2018-12-29T06:47:48.740Z,0.60
2018-12-29T06:52:34.489Z,0.60
2018-12-29T06:57:20.229Z,0.70
2018-12-29T07:02:06.123Z,0.60
2018-12-29T07:06:51.850Z,0.70
2018-12-29T07:11:38.658Z,0.70
2018-12-29T07:16:24.598Z,0.80
2018-12-29T07:21:10.313Z,0.80
2018-12-29T07:25:56.025Z,0.70
2018-12-29T07:30:41.763Z,0.70
2018-12-29T07:35:27.514Z,0.70
2018-12-29T07:40:13.254Z,0.60
2018-12-29T07:44:58.998Z,0.70
2018-12-29T07:49:44.689Z,0.70
2018-12-29T07:54:30.458Z,0.70
2018-12-29T07:59:16.195Z,0.70
2018-12-29T08:04:01.954Z,0.80
2018-12-29T08:08:47.649Z,0.70
2018-12-29T08:13:33.503Z,0.70
2018-12-29T08:18:19.247Z,0.80
2018-12-29T08:23:05.065Z,0.80
2018-12-29T08:27:50.838Z,0.80
2018-12-29T08:32:36.580Z,0.90
2018-12-29T08:37:22.317Z,0.90
2018-12-29T08:42:08.075Z,1.00
2018-12-29T08:46:53.995Z,1.00
2018-12-29T08:51:40.287Z,1.00
2018-12-29T08:56:26.218Z,1.10
2018-12-29T09:01:12.118Z,1.20
2018-12-29T09:05:57.913Z,1.10
2018-12-29T09:10:43.739Z,1.10
2018-12-29T09:15:29.606Z,1.10
2018-12-29T09:20:15.389Z,1.10
2018-12-29T09:25:02.428Z,1.20
2018-12-29T09:29:48.187Z,1.20
2018-12-29T09:34:33.924Z,1.30
2018-12-29T09:39:19.850Z,1.60
2018-12-29T09:44:05.621Z,1.80
2018-12-29T09:48:51.535Z,2.00
2018-12-29T09:53:37.523Z,2.20
2018-12-29T09:58:23.321Z,2.10
2018-12-29T10:03:09.229Z,2.00
2018-12-29T10:07:55.073Z,2.10
2018-12-29T10:12:40.892Z,2.20
2018-12-29T10:17:28.615Z,2.40
2018-12-29T10:22:14.427Z,2.50
2018-12-29T10:27:00.323Z,2.60
2018-12-29T10:31:49.158Z,2.70
2018-12-29T10:36:35.002Z,2.60
2018-12-29T10:41:20.937Z,2.60
2018-12-29T10:46:06.883Z,2.60
2018-12-29T10:50:52.740Z,2.70
2018-12-29T10:55:38.557Z,2.60
2018-12-29T11:00:24.453Z,2.50
2018-12-29T11:05:10.468Z,2.50
2018-12-29T11:09:56.306Z,2.30
2018-12-29T11:14:42.121Z,2.30
2018-12-29T11:19:27.924Z,2.50
2018-12-29T11:24:13.877Z,2.50
2018-12-29T11:28:59.615Z,2.60
2018-12-29T11:33:45.574Z,2.60
2018-12-29T11:38:31.328Z,2.60
2018-12-29T11:43:17.241Z,2.50
2018-12-29T11:48:03.068Z,2.50
2018-12-29T11:52:48.861Z,2.40
2018-12-29T11:57:34.661Z,2.40
2018-12-29T12:02:24.461Z,2.40
2018-12-29T12:07:07.863Z,2.30
2018-12-29T12:11:53.687Z,2.40
2018-12-29T12:16:39.537Z,2.50
2018-12-29T12:21:25.504Z,2.50
2018-12-29T12:26:11.530Z,2.40
2018-12-29T12:30:57.256Z,2.40
2018-12-29T12:35:43.340Z,2.40
2018-12-29T12:40:29.458Z,2.40
2018-12-29T12:45:15.228Z,2.40
2018-12-29T12:50:01.029Z,2.40
2018-12-29T12:54:47.153Z,2.50
2018-12-29T12:59:33.226Z,2.40
2018-12-29T13:04:19.001Z,2.50
2018-12-29T13:09:06.430Z,2.50
2018-12-29T13:13:52.216Z,2.50
2018-12-29T13:18:37.975Z,2.40
2018-12-29T13:23:23.717Z,2.40
2018-12-29T13:28:09.593Z,2.50
2018-12-29T13:32:55.489Z,2.40
2018-12-29T13:37:41.257Z,2.20
2018-12-29T13:42:27.206Z,2.10
2018-12-29T13:47:12.989Z,2.00
2018-12-29T13:51:59.245Z,2.00
2018-12-29T13:56:44.966Z,2.00
2018-12-29T14:01:30.807Z,1.90
2018-12-29T14:06:16.831Z,1.90
2018-12-29T14:11:02.837Z,1.90
2018-12-29T14:15:48.677Z,1.90
2018-12-29T14:20:34.640Z,1.80
2018-12-29T14:25:20.422Z,1.70
2018-12-29T14:30:06.692Z,1.70
2018-12-29T14:34:52.498Z,1.70
2018-12-29T14:39:38.331Z,1.60
2018-12-29T14:44:43.133Z,1.60
2018-12-29T14:49:29.011Z,1.50
2018-12-29T14:54:14.772Z,1.50
2018-12-29T14:59:00.647Z,1.40
2018-12-29T15:03:46.420Z,1.40
2018-12-29T15:08:32.271Z,1.30
2018-12-29T15:13:18.110Z,1.30
2018-12-29T15:18:03.970Z,1.30
2018-12-29T15:22:50.428Z,1.30
2018-12-29T15:27:36.248Z,1.40
2018-12-29T15:32:22.093Z,1.30
2018-12-29T15:37:07.992Z,1.40
2018-12-29T15:41:54.135Z,1.30
2018-12-29T15:46:39.943Z,1.20
2018-12-29T15:51:25.695Z,1.20
2018-12-29T15:56:11.594Z,1.20
2018-12-29T16:00:59.785Z,1.20
2018-12-29T16:05:45.563Z,1.10
2018-12-29T16:10:31.617Z,1.20
2018-12-29T16:15:17.660Z,1.10
2018-12-29T16:20:03.651Z,1.10
2018-12-29T16:24:49.542Z,1.10
2018-12-29T16:29:35.925Z,1.00
2018-12-29T16:34:21.760Z,1.00
2018-12-29T16:39:08.829Z,1.10
2018-12-29T16:43:54.625Z,1.10
2018-12-29T16:48:40.701Z,1.10
2018-12-29T16:53:29.354Z,1.10
2018-12-29T16:58:14.018Z,1.10
2018-12-29T17:02:59.828Z,1.00
2018-12-29T17:07:45.687Z,0.90
2018-12-29T17:12:31.719Z,1.00
2018-12-29T17:17:18.395Z,0.90
2018-12-29T17:22:04.790Z,0.80
2018-12-29T17:26:50.710Z,0.80
2018-12-29T17:31:36.552Z,0.70
2018-12-29T17:36:22.634Z,0.70
2018-12-29T17:41:08.557Z,0.70
2018-12-29T17:45:54.520Z,0.70
2018-12-29T17:50:40.585Z,0.70
2018-12-29T17:55:26.492Z,0.60
2018-12-29T18:00:12.324Z,0.60
2018-12-29T18:04:58.276Z,0.60
2018-12-29T18:09:44.539Z,0.50
2018-12-29T18:14:30.862Z,0.50
2018-12-29T18:19:16.697Z,0.50
2018-12-29T18:24:02.583Z,0.50
2018-12-29T18:28:48.430Z,0.40
2018-12-29T18:33:37.390Z,0.40
2018-12-29T18:38:21.738Z,0.30
2018-12-29T18:43:07.633Z,0.20
2018-12-29T18:47:53.497Z,0.20
2018-12-29T18:52:39.508Z,0.20
2018-12-29T18:57:44.756Z,1.30
2018-12-29T19:02:30.646Z,3.50
2018-12-29T19:07:16.466Z,4.60
2018-12-29T19:12:02.383Z,4.90
2018-12-29T19:16:48.401Z,5.40
2018-12-29T19:21:37.168Z,5.80
2018-12-29T19:26:23.471Z,5.40
2018-12-29T19:31:09.656Z,3.80
2018-12-29T19:35:55.496Z,2.60
2018-12-29T19:40:41.471Z,1.50
2018-12-29T19:45:28.188Z,1.00
2018-12-29T19:50:14.613Z,0.60
2018-12-29T19:55:00.497Z,0.40
2018-12-29T19:59:46.456Z,0.20
2018-12-29T20:04:32.543Z,0.20
2018-12-29T20:09:19.076Z,0.10
2018-12-29T20:14:04.866Z,0.00
2018-12-29T20:19:11.094Z,1.90
2018-12-29T20:23:57.238Z,2.20
2018-12-29T20:28:43.090Z,1.10
2018-12-29T20:33:29.103Z,0.40
2018-12-29T20:38:14.997Z,0.60
2018-12-29T20:43:00.865Z,0.20
2018-12-29T20:47:48.133Z,0.00
2018-12-29T20:52:34.400Z,-0.10
2018-12-29T20:57:20.311Z,-0.30
2018-12-29T21:02:06.224Z,-0.20
2018-12-29T21:06:52.584Z,-0.30
2018-12-29T21:11:38.381Z,-0.20
2018-12-29T21:16:24.761Z,-0.20
2018-12-29T21:21:10.659Z,-0.30
2018-12-29T21:25:56.666Z,-0.40
2018-12-29T21:30:42.661Z,-0.50
2018-12-29T21:35:28.824Z,-0.60
2018-12-29T21:40:14.789Z,-0.50
2018-12-29T21:45:19.933Z,-0.40
2018-12-29T21:50:06.646Z,-0.20
2018-12-29T21:54:52.762Z,-0.20
2018-12-29T21:59:39.806Z,-0.20
2018-12-29T22:04:26.143Z,-0.30
2018-12-29T22:09:12.501Z,-0.40
2018-12-29T22:13:58.626Z,-0.60
2018-12-29T22:18:45.016Z,-0.70
2018-12-29T22:23:31.090Z,-0.70
2018-12-29T22:28:17.135Z,-0.80
2018-12-29T22:33:03.247Z,-0.70
2018-12-29T22:37:49.139Z,-0.60
2018-12-29T22:42:35.434Z,-0.60
2018-12-29T22:47:21.483Z,-0.50
2018-12-29T22:52:07.596Z,-0.50
2018-12-29T22:56:53.491Z,-0.40
2018-12-29T23:01:39.886Z,-0.30
2018-12-29T23:06:25.745Z,-0.20
2018-12-29T23:11:11.495Z,-0.20
2018-12-29T23:15:57.457Z,-0.10
2018-12-29T23:20:49.174Z,0.00
2018-12-29T23:25:31.379Z,0.00
2018-12-29T23:30:17.360Z,0.00
2018-12-29T23:35:03.615Z,0.10
2018-12-29T23:39:49.402Z,0.20
2018-12-29T23:44:35.270Z,0.20
2018-12-29T23:49:21.069Z,0.30
2018-12-29T23:54:07.031Z,0.30
2018-12-29T23:58:53.508Z,0.40
